Time;durP1;ratioP1;P1;durP2;ratioP2;P2;SDS_P1;SDS_P2;PMS_P1;PMS_P2;Temp;Humidity;BMP_temperature;BMP_pressure;BME280_temperature;BME280_humidity;BME280_pressure;Samples;Min_cycle;Max_cycle;Signal;HPM_P1;HPM_P2
2021/04/21 00:01:10;;;;;;;11.85;10.73;;;;;;;;;;5053202;28;20189;-66
2021/04/21 00:03:37;;;;;;;12.10;10.77;;;;;;;;;;5052332;28;20239;-65
2021/04/21 00:06:04;;;;;;;11.00;9.75;;;;;;;;;;5053405;28;20196;-65
2021/04/21 00:08:31;;;;;;;12.05;10.63;;;;;;;;;;5052752;28;20195;-65
2021/04/21 00:11:00;;;;;;;11.38;9.27;;;;;;;;;;5037362;28;20243;-65
2021/04/21 00:13:27;;;;;;;16.02;12.18;;;;;;;;;;5057288;28;20200;-65
2021/04/21 00:15:54;;;;;;;11.82;10.27;;;;;;;;;;5056495;28;20209;-66
2021/04/21 00:18:21;;;;;;;13.48;10.52;;;;;;;;;;5039071;28;20223;-66
2021/04/21 00:20:59;;;;;;;12.82;10.18;;;;;;;;;;5055907;28;20219;-66
2021/04/21 00:23:27;;;;;;;13.52;11.30;;;;;;;;;;5056360;28;20301;-65
2021/04/21 00:25:56;;;;;;;12.05;10.15;;;;;;;;;;5056101;28;20189;-66
2021/04/21 00:28:23;;;;;;;13.35;10.55;;;;;;;;;;5056593;28;20189;-66
2021/04/21 00:30:50;;;;;;;11.25;10.05;;;;;;;;;;5056533;28;20185;-66
2021/04/21 00:33:18;;;;;;;11.23;10.05;;;;;;;;;;5056578;28;20196;-66
2021/04/21 00:35:45;;;;;;;13.80;11.50;;;;;;;;;;5056393;28;20208;-65
2021/04/21 00:38:13;;;;;;;12.10;10.85;;;;;;;;;;5056778;28;20640;-65
2021/04/21 00:40:46;;;;;;;12.38;10.32;;;;;;;;;;5056721;28;20299;-65
2021/04/21 00:43:32;;;;;;;13.40;11.02;;;;;;;;;;5055794;28;20193;-65
2021/04/21 00:46:12;;;;;;;12.20;9.60;;;;;;;;;;5056284;28;20196;-66
2021/04/21 00:48:45;;;;;;;12.50;9.57;;;;;;;;;;5056400;28;20196;-66
2021/04/21 00:51:14;;;;;;;12.77;9.48;;;;;;;;;;5038279;28;20682;-66
2021/04/21 00:53:48;;;;;;;12.70;10.13;;;;;;;;;;5055890;28;20699;-66
2021/04/21 00:56:24;;;;;;;10.20;9.20;;;;;;;;;;5037584;28;20219;-66
2021/04/21 00:58:51;;;;;;;14.52;11.25;;;;;;;;;;5055893;28;20306;-66
2021/04/21 01:01:19;;;;;;;11.73;10.32;;;;;;;;;;5056218;28;20192;-65
2021/04/21 01:03:47;;;;;;;13.32;10.25;;;;;;;;;;5055595;28;20213;-65
2021/04/21 01:06:15;;;;;;;12.23;10.88;;;;;;;;;;5055526;28;20192;-65
2021/04/21 01:08:46;;;;;;;12.90;9.40;;;;;;;;;;5055942;28;20272;-65
2021/04/21 01:11:29;;;;;;;13.18;11.00;;;;;;;;;;5055748;28;20315;-65
2021/04/21 01:14:16;;;;;;;11.88;10.48;;;;;;;;;;5055304;28;20295;-65
2021/04/21 01:16:43;;;;;;;12.40;9.85;;;;;;;;;;5055557;28;20177;-65
2021/04/21 01:19:17;;;;;;;11.95;10.60;;;;;;;;;;5055107;28;20196;-66
2021/04/21 01:21:50;;;;;;;17.98;11.05;;;;;;;;;;5053747;28;20207;-65
2021/04/21 01:24:23;;;;;;;14.07;11.35;;;;;;;;;;5054334;28;20228;-65
2021/04/21 01:27:10;;;;;;;19.08;14.77;;;;;;;;;;5055429;28;20197;-65
2021/04/21 01:29:39;;;;;;;18.08;15.15;;;;;;;;;;5055242;28;20196;-65
2021/04/21 01:32:16;;;;;;;20.58;13.77;;;;;;;;;;5054664;28;20196;-65
2021/04/21 01:34:43;;;;;;;17.63;14.75;;;;;;;;;;5055299;28;20191;-65
2021/04/21 01:37:12;;;;;;;15.90;13.88;;;;;;;;;;5036803;28;20656;-65
2021/04/21 01:39:40;;;;;;;14.88;11.77;;;;;;;;;;5055810;28;20286;-65
2021/04/21 01:42:07;;;;;;;16.00;11.93;;;;;;;;;;5054995;28;20228;-65
2021/04/21 01:44:42;;;;;;;13.98;11.45;;;;;;;;;;5037133;28;20680;-65
2021/04/21 01:47:10;;;;;;;15.05;11.90;;;;;;;;;;5055279;28;20180;-65
2021/04/21 01:49:37;;;;;;;15.25;11.75;;;;;;;;;;5054864;28;20203;-63
2021/04/21 01:52:24;;;;;;;12.88;11.13;;;;;;;;;;5054718;28;20181;-64
2021/04/21 01:54:52;;;;;;;14.60;12.32;;;;;;;;;;5054558;28;20215;-64
2021/04/21 01:57:28;;;;;;;17.08;12.50;;;;;;;;;;5054829;28;20715;-64
2021/04/21 01:59:59;;;;;;;11.75;10.15;;;;;;;;;;5054555;28;20671;-64
2021/04/21 02:02:30;;;;;;;15.35;11.48;;;;;;;;;;5054906;28;20187;-64
2021/04/21 02:05:08;;;;;;;13.75;10.73;;;;;;;;;;5054159;28;20235;-64
2021/04/21 02:07:47;;;;;;;12.52;9.75;;;;;;;;;;5054964;28;20185;-64
2021/04/21 02:10:32;;;;;;;14.40;12.05;;;;;;;;;;5054387;28;20535;-64
2021/04/21 02:13:05;;;;;;;15.55;10.88;;;;;;;;;;5054532;28;20197;-64
2021/04/21 02:15:33;;;;;;;12.85;11.20;;;;;;;;;;5054106;28;20204;-64
2021/04/21 02:18:05;;;;;;;11.85;9.65;;;;;;;;;;5053738;28;20200;-64
2021/04/21 02:20:45;;;;;;;13.50;11.65;;;;;;;;;;5054387;28;20255;-64
2021/04/21 02:23:18;;;;;;;20.40;12.57;;;;;;;;;;5053998;28;20205;-64
2021/04/21 02:25:54;;;;;;;14.15;11.85;;;;;;;;;;5036835;28;20292;-65
2021/04/21 02:28:24;;;;;;;13.52;11.60;;;;;;;;;;5054270;28;20210;-64
2021/04/21 02:31:06;;;;;;;15.60;11.85;;;;;;;;;;5054548;28;20176;-64
2021/04/21 02:33:43;;;;;;;12.70;11.25;;;;;;;;;;5035685;28;20675;-64
2021/04/21 02:36:17;;;;;;;14.32;11.75;;;;;;;;;;5053880;28;20189;-64
2021/04/21 02:39:03;;;;;;;16.73;12.88;;;;;;;;;;5053376;28;20208;-64
2021/04/21 02:41:33;;;;;;;15.73;11.07;;;;;;;;;;5035457;28;20243;-64
2021/04/21 02:44:17;;;;;;;17.45;14.23;;;;;;;;;;5054158;28;20220;-64
2021/04/21 02:46:55;;;;;;;14.68;12.25;;;;;;;;;;5054158;28;20173;-64
2021/04/21 02:49:40;;;;;;;13.60;10.88;;;;;;;;;;5053966;28;20181;-64
2021/04/21 02:52:12;;;;;;;15.65;11.93;;;;;;;;;;5053947;28;20237;-64
2021/04/21 02:54:39;;;;;;;16.10;11.75;;;;;;;;;;5054072;28;20188;-64
2021/04/21 02:57:10;;;;;;;13.55;11.32;;;;;;;;;;5054004;28;20557;-64
2021/04/21 02:59:42;;;;;;;14.80;11.80;;;;;;;;;;5035702;28;20208;-64
2021/04/21 03:02:10;;;;;;;14.32;11.75;;;;;;;;;;5052826;28;20636;-64
2021/04/21 03:04:57;;;;;;;15.68;12.70;;;;;;;;;;5052958;28;20220;-64
2021/04/21 03:07:31;;;;;;;14.63;12.25;;;;;;;;;;5053443;28;20195;-64
2021/04/21 03:10:03;;;;;;;18.50;14.05;;;;;;;;;;5053045;28;20645;-64
2021/04/21 03:12:31;;;;;;;16.65;11.82;;;;;;;;;;5053126;28;20192;-65
2021/04/21 03:15:02;;;;;;;18.30;13.52;;;;;;;;;;5052873;28;20188;-64
2021/04/21 03:17:28;;;;;;;14.95;12.43;;;;;;;;;;5052801;28;20200;-64
2021/04/21 03:19:58;;;;;;;16.63;13.30;;;;;;;;;;5053416;28;20185;-64
2021/04/21 03:22:27;;;;;;;14.68;12.63;;;;;;;;;;5053398;28;20188;-65
2021/04/21 03:24:57;;;;;;;14.63;12.60;;;;;;;;;;5035235;28;20224;-64
2021/04/21 03:27:25;;;;;;;14.80;12.30;;;;;;;;;;5054061;28;20197;-64
2021/04/21 03:29:52;;;;;;;17.52;13.73;;;;;;;;;;5053632;28;20594;-64
2021/04/21 03:32:21;;;;;;;13.85;12.30;;;;;;;;;;5054322;28;20223;-64
2021/04/21 03:34:49;;;;;;;15.73;12.20;;;;;;;;;;5053605;28;20540;-64
2021/04/21 03:37:42;;;;;;;15.15;11.85;;;;;;;;;;5054215;28;20539;-65
2021/04/21 03:40:10;;;;;;;14.70;12.75;;;;;;;;;;4983455;28;20664;-64
2021/04/21 03:42:38;;;;;;;15.73;12.70;;;;;;;;;;5053238;28;20332;-64
2021/04/21 03:45:05;;;;;;;17.50;12.82;;;;;;;;;;5035355;28;20229;-64
2021/04/21 03:47:33;;;;;;;14.43;11.63;;;;;;;;;;5057022;28;20188;-64
2021/04/21 03:50:00;;;;;;;13.98;12.55;;;;;;;;;;5039346;28;20227;-66
2021/04/21 03:52:27;;;;;;;15.88;12.65;;;;;;;;;;5057320;28;20193;-65
2021/04/21 03:54:56;;;;;;;18.15;12.70;;;;;;;;;;5057587;28;20188;-65
2021/04/21 03:57:24;;;;;;;13.75;11.90;;;;;;;;;;5055965;28;20209;-65
2021/04/21 03:59:52;;;;;;;15.95;11.43;;;;;;;;;;5056911;28;20209;-65
2021/04/21 04:02:20;;;;;;;14.43;11.25;;;;;;;;;;5058022;28;20214;-65
2021/04/21 04:04:53;;;;;;;16.05;12.25;;;;;;;;;;5057613;28;20221;-65
2021/04/21 04:07:20;;;;;;;14.35;12.05;;;;;;;;;;5056706;28;20197;-65
2021/04/21 04:09:48;;;;;;;16.67;12.57;;;;;;;;;;5056926;28;20199;-65
2021/04/21 04:12:16;;;;;;;14.68;11.68;;;;;;;;;;5038696;28;20205;-65
2021/04/21 04:14:44;;;;;;;14.10;11.55;;;;;;;;;;5056785;28;20674;-65
2021/04/21 04:17:12;;;;;;;14.13;11.80;;;;;;;;;;5056436;28;20208;-65
2021/04/21 04:19:42;;;;;;;14.38;12.10;;;;;;;;;;5056738;28;20205;-65
2021/04/21 04:22:10;;;;;;;17.38;11.05;;;;;;;;;;5057001;28;20250;-65
2021/04/21 04:24:48;;;;;;;14.90;11.63;;;;;;;;;;5056987;28;20584;-65
2021/04/21 04:27:19;;;;;;;12.50;10.48;;;;;;;;;;5057422;28;20191;-65
2021/04/21 04:29:46;;;;;;;16.10;11.93;;;;;;;;;;5038126;28;20663;-65
2021/04/21 04:32:14;;;;;;;14.50;11.05;;;;;;;;;;5056452;28;20192;-65
2021/04/21 04:34:45;;;;;;;18.50;12.70;;;;;;;;;;5055800;28;20571;-65
2021/04/21 04:37:15;;;;;;;18.80;13.98;;;;;;;;;;5056280;28;20515;-65
2021/04/21 04:39:42;;;;;;;16.23;12.48;;;;;;;;;;5056843;28;20541;-65
2021/04/21 04:42:10;;;;;;;15.90;11.85;;;;;;;;;;5055686;28;20225;-65
2021/04/21 04:44:41;;;;;;;15.27;11.40;;;;;;;;;;5055921;28;20307;-65
2021/04/21 04:47:12;;;;;;;15.90;12.77;;;;;;;;;;5056339;28;20185;-65
2021/04/21 04:49:46;;;;;;;13.43;11.27;;;;;;;;;;5055950;28;20193;-65
2021/04/21 04:52:13;;;;;;;14.57;11.65;;;;;;;;;;5055587;28;20611;-65
2021/04/21 04:54:41;;;;;;;15.80;13.55;;;;;;;;;;5056621;28;20570;-65
2021/04/21 04:57:08;;;;;;;15.18;12.38;;;;;;;;;;5054979;28;20535;-65
2021/04/21 04:59:37;;;;;;;14.63;10.98;;;;;;;;;;5055761;28;20195;-65
2021/04/21 05:02:04;;;;;;;17.77;12.10;;;;;;;;;;5037320;28;20216;-65
2021/04/21 05:04:31;;;;;;;18.85;11.85;;;;;;;;;;5055434;28;20303;-65
2021/04/21 05:07:00;;;;;;;15.50;11.52;;;;;;;;;;5055552;28;20640;-65
2021/04/21 05:09:29;;;;;;;15.48;11.90;;;;;;;;;;5055156;28;20211;-65
2021/04/21 05:11:59;;;;;;;18.98;12.45;;;;;;;;;;5055654;28;20189;-65
2021/04/21 05:14:26;;;;;;;18.33;12.45;;;;;;;;;;5055867;28;20193;-64
2021/04/21 05:16:55;;;;;;;14.73;12.02;;;;;;;;;;5055808;28;20192;-64
2021/04/21 05:19:37;;;;;;;16.13;11.93;;;;;;;;;;5055769;28;20200;-64
2021/04/21 05:22:07;;;;;;;14.63;12.20;;;;;;;;;;5055351;28;20276;-64
2021/04/21 05:24:52;;;;;;;19.13;14.13;;;;;;;;;;5055145;28;20303;-64
2021/04/21 05:27:22;;;;;;;16.48;11.50;;;;;;;;;;5055116;28;20201;-64
2021/04/21 05:30:00;;;;;;;19.83;14.38;;;;;;;;;;5055425;28;20204;-64
2021/04/21 05:32:27;;;;;;;41.47;22.48;;;;;;;;;;5055524;28;20201;-64
2021/04/21 05:35:00;;;;;;;39.13;20.38;;;;;;;;;;5055418;28;20204;-64
2021/04/21 05:37:35;;;;;;;24.77;17.67;;;;;;;;;;5055365;28;20205;-64
2021/04/21 05:40:14;;;;;;;27.33;18.63;;;;;;;;;;5054935;28;20583;-64
2021/04/21 05:42:41;;;;;;;33.92;17.00;;;;;;;;;;5054216;28;20562;-64
2021/04/21 05:45:26;;;;;;;25.40;16.30;;;;;;;;;;5054435;28;20643;-64
2021/04/21 05:48:25;;;;;;;24.17;17.00;;;;;;;;;;5054493;28;20223;-64
2021/04/21 05:51:03;;;;;;;21.60;15.80;;;;;;;;;;5001247;28;20660;-64
2021/04/21 05:53:49;;;;;;;25.55;15.00;;;;;;;;;;5054964;28;20188;-64
2021/04/21 05:56:38;;;;;;;18.52;13.85;;;;;;;;;;5054846;28;20200;-64
2021/04/21 05:59:14;;;;;;;16.67;14.00;;;;;;;;;;5055175;28;20260;-64
2021/04/21 06:01:44;;;;;;;16.85;13.57;;;;;;;;;;5055309;28;20180;-64
2021/04/21 06:04:11;;;;;;;15.88;12.38;;;;;;;;;;5055000;28;20196;-64
2021/04/21 06:06:37;;;;;;;18.17;14.45;;;;;;;;;;5054331;28;20197;-64
2021/04/21 06:09:08;;;;;;;17.88;15.13;;;;;;;;;;5054163;28;20196;-64
2021/04/21 06:11:36;;;;;;;16.95;13.48;;;;;;;;;;5054615;28;20189;-64
2021/04/21 06:14:04;;;;;;;16.75;12.77;;;;;;;;;;5037001;28;20204;-64
2021/04/21 06:16:32;;;;;;;17.10;12.23;;;;;;;;;;5055561;28;20189;-64
2021/04/21 06:19:00;;;;;;;17.48;13.65;;;;;;;;;;5054527;28;20201;-64
2021/04/21 06:21:29;;;;;;;18.83;13.02;;;;;;;;;;5054088;28;20670;-64
2021/04/21 06:23:57;;;;;;;15.38;13.43;;;;;;;;;;5053689;28;20205;-64
2021/04/21 06:26:25;;;;;;;19.92;14.50;;;;;;;;;;5053876;28;20228;-64
2021/04/21 06:29:02;;;;;;;18.95;13.77;;;;;;;;;;5054400;28;20662;-64
2021/04/21 06:31:36;;;;;;;16.92;12.90;;;;;;;;;;5054522;28;20201;-64
2021/04/21 06:34:04;;;;;;;19.05;14.35;;;;;;;;;;5054255;28;20177;-64
2021/04/21 06:36:32;;;;;;;19.88;14.05;;;;;;;;;;5053773;28;20224;-64
2021/04/21 06:38:59;;;;;;;14.35;12.65;;;;;;;;;;5053516;28;20231;-63
2021/04/21 06:41:26;;;;;;;17.15;13.75;;;;;;;;;;5053180;28;20228;-63
2021/04/21 06:43:55;;;;;;;17.75;12.63;;;;;;;;;;5054347;28;20648;-65
2021/04/21 06:46:22;;;;;;;17.20;12.98;;;;;;;;;;5053943;28;20212;-64
2021/04/21 06:48:56;;;;;;;20.40;14.43;;;;;;;;;;5053695;28;20197;-65
2021/04/21 06:51:24;;;;;;;17.50;13.82;;;;;;;;;;5054070;28;20319;-64
2021/04/21 06:53:52;;;;;;;13.85;12.43;;;;;;;;;;5053693;28;20192;-64
2021/04/21 06:56:39;;;;;;;16.55;12.63;;;;;;;;;;5053096;28;20215;-64
2021/04/21 06:59:06;;;;;;;14.50;12.98;;;;;;;;;;5053657;28;20195;-65
2021/04/21 07:01:32;;;;;;;16.17;13.52;;;;;;;;;;5054080;28;20204;-64
2021/04/21 07:04:11;;;;;;;20.83;13.90;;;;;;;;;;5053774;28;20207;-64
2021/04/21 07:06:38;;;;;;;15.90;13.07;;;;;;;;;;5054038;28;20683;-63
2021/04/21 07:09:13;;;;;;;16.48;13.98;;;;;;;;;;5053674;28;20223;-64
2021/04/21 07:11:40;;;;;;;16.65;13.23;;;;;;;;;;5053316;28;20643;-63
2021/04/21 07:14:07;;;;;;;17.02;13.63;;;;;;;;;;5057133;28;20204;-65
2021/04/21 07:16:35;;;;;;;19.00;14.32;;;;;;;;;;5060730;28;20587;-66
2021/04/21 07:19:06;;;;;;;16.10;13.25;;;;;;;;;;5056283;28;20211;-66
2021/04/21 07:21:34;;;;;;;27.67;13.48;;;;;;;;;;5064031;28;20215;-66
2021/04/21 07:24:02;;;;;;;17.52;14.13;;;;;;;;;;5066725;28;20275;-66
2021/04/21 07:26:30;;;;;;;17.58;15.68;;;;;;;;;;5064976;28;20216;-65
2021/04/21 07:28:57;;;;;;;17.75;14.43;;;;;;;;;;5064494;28;20263;-66
2021/04/21 07:31:23;;;;;;;36.25;15.93;;;;;;;;;;5049147;28;20199;-66
2021/04/21 07:33:50;;;;;;;33.15;16.27;;;;;;;;;;5033041;28;20208;-66
2021/04/21 07:36:21;;;;;;;20.15;15.43;;;;;;;;;;5066858;28;20208;-66
2021/04/21 07:38:57;;;;;;;25.10;15.82;;;;;;;;;;5065281;28;20200;-66
2021/04/21 07:41:32;;;;;;;17.98;14.70;;;;;;;;;;5046413;28;20224;-66
2021/04/21 07:43:59;;;;;;;19.48;16.58;;;;;;;;;;5048138;28;20214;-66
2021/04/21 07:46:26;;;;;;;21.77;15.07;;;;;;;;;;5068356;28;20735;-66
2021/04/21 07:48:53;;;;;;;19.35;15.82;;;;;;;;;;5050382;28;20610;-66
2021/04/21 07:51:21;;;;;;;17.38;15.07;;;;;;;;;;5049135;28;20216;-66
2021/04/21 07:53:48;;;;;;;19.20;14.75;;;;;;;;;;5064789;28;20721;-65
2021/04/21 07:56:15;;;;;;;15.30;13.70;;;;;;;;;;5066133;28;20197;-66
2021/04/21 07:58:42;;;;;;;21.08;14.77;;;;;;;;;;5064722;28;20196;-66
2021/04/21 08:01:09;;;;;;;20.75;15.00;;;;;;;;;;5065247;28;20287;-65
2021/04/21 08:03:36;;;;;;;20.88;15.82;;;;;;;;;;5067093;28;20727;-65
2021/04/21 08:06:03;;;;;;;17.67;14.55;;;;;;;;;;5067466;28;20238;-65
2021/04/21 08:08:31;;;;;;;18.60;13.93;;;;;;;;;;5067232;28;20195;-66
2021/04/21 08:10:58;;;;;;;15.53;13.27;;;;;;;;;;5066910;28;20252;-66
2021/04/21 08:13:42;;;;;;;15.03;13.23;;;;;;;;;;5065449;28;20587;-65
2021/04/21 08:16:22;;;;;;;19.15;14.40;;;;;;;;;;5065749;28;20745;-66
2021/04/21 08:18:49;;;;;;;17.52;14.65;;;;;;;;;;5048586;28;20213;-66
2021/04/21 08:21:35;;;;;;;13.65;12.23;;;;;;;;;;5065842;28;20329;-66
2021/04/21 08:24:04;;;;;;;21.33;13.70;;;;;;;;;;5067545;28;20220;-66
2021/04/21 08:26:30;;;;;;;15.95;13.30;;;;;;;;;;5067489;28;20208;-66
2021/04/21 08:28:57;;;;;;;16.25;12.98;;;;;;;;;;5065088;28;20576;-67
2021/04/21 08:31:25;;;;;;;20.37;13.50;;;;;;;;;;5064337;28;20199;-66
2021/04/21 08:33:52;;;;;;;15.97;12.13;;;;;;;;;;5061015;28;20615;-66
2021/04/21 08:36:19;;;;;;;14.93;12.97;;;;;;;;;;5044563;28;20725;-66
2021/04/21 08:38:47;;;;;;;14.90;13.30;;;;;;;;;;5062452;28;20577;-66
2021/04/21 08:41:16;;;;;;;21.40;13.50;;;;;;;;;;5064007;28;20724;-66
2021/04/21 08:43:47;;;;;;;14.70;12.87;;;;;;;;;;5062302;28;20729;-66
2021/04/21 08:46:14;;;;;;;14.77;12.47;;;;;;;;;;5060183;28;20761;-66
2021/04/21 08:48:42;;;;;;;15.17;13.33;;;;;;;;;;5062433;28;20623;-66
2021/04/21 08:51:11;;;;;;;15.47;12.57;;;;;;;;;;5065466;28;20602;-66
2021/04/21 08:53:39;;;;;;;14.70;12.93;;;;;;;;;;5063176;28;20698;-66
2021/04/21 08:56:05;;;;;;;15.37;13.17;;;;;;;;;;5061159;28;21199;-66
2021/04/21 08:58:33;;;;;;;16.00;12.60;;;;;;;;;;5045027;28;20619;-66
2021/04/21 09:01:01;;;;;;;14.50;12.60;;;;;;;;;;5063483;28;20631;-66
2021/04/21 09:03:28;;;;;;;22.10;17.30;;;;;;;;;;5062246;28;20591;-66
2021/04/21 09:05:54;;;;;;;13.07;11.60;;;;;;;;;;5061567;28;20642;-66
2021/04/21 09:08:22;;;;;;;15.20;13.07;;;;;;;;;;5062080;28;20618;-66
2021/04/21 09:10:48;;;;;;;15.00;12.27;;;;;;;;;;5060337;28;20705;-66
2021/04/21 09:13:15;;;;;;;15.27;11.93;;;;;;;;;;5063018;28;20570;-65
2021/04/21 09:15:44;;;;;;;15.87;13.87;;;;;;;;;;5061967;28;20645;-66
2021/04/21 09:18:10;;;;;;;18.00;13.17;;;;;;;;;;5060149;28;20623;-65
2021/04/21 09:20:46;;;;;;;20.27;12.80;;;;;;;;;;5061570;28;20729;-65
2021/04/21 09:23:18;;;;;;;14.83;12.57;;;;;;;;;;5061244;28;20609;-65
2021/04/21 09:25:46;;;;;;;17.10;13.37;;;;;;;;;;5061757;28;20580;-65
2021/04/21 09:28:14;;;;;;;14.60;11.80;;;;;;;;;;5044554;28;20606;-65
2021/04/21 09:30:43;;;;;;;17.30;13.43;;;;;;;;;;5061475;28;20595;-65
2021/04/21 09:33:10;;;;;;;15.10;13.33;;;;;;;;;;5058313;28;20684;-66
2021/04/21 09:35:40;;;;;;;15.97;12.47;;;;;;;;;;5055932;28;20651;-65
2021/04/21 09:38:11;;;;;;;15.50;13.47;;;;;;;;;;5056567;28;20603;-65
2021/04/21 09:40:58;;;;;;;17.37;13.40;;;;;;;;;;5056938;28;20619;-65
2021/04/21 09:43:33;;;;;;;16.87;14.40;;;;;;;;;;5055683;28;20615;-65
2021/04/21 09:46:20;;;;;;;18.70;13.47;;;;;;;;;;5055886;28;20658;-66
2021/04/21 09:48:47;;;;;;;18.77;13.37;;;;;;;;;;5056843;28;20576;-65
2021/04/21 09:51:15;;;;;;;16.90;13.83;;;;;;;;;;5058458;28;20991;-66
2021/04/21 09:53:49;;;;;;;17.17;13.30;;;;;;;;;;5057759;28;20591;-65
2021/04/21 09:56:16;;;;;;;17.10;12.10;;;;;;;;;;5056147;28;20623;-65
2021/04/21 09:58:53;;;;;;;19.90;13.87;;;;;;;;;;5056556;28;21114;-66
2021/04/21 10:01:33;;;;;;;16.87;13.10;;;;;;;;;;5056764;28;20579;-63
2021/04/21 10:04:07;;;;;;;16.30;14.10;;;;;;;;;;5055658;28;20619;-65
2021/04/21 10:06:34;;;;;;;16.10;13.07;;;;;;;;;;5054353;28;20657;-64
2021/04/21 10:09:01;;;;;;;18.93;14.30;;;;;;;;;;5054963;28;20949;-65
2021/04/21 10:11:28;;;;;;;15.13;12.40;;;;;;;;;;5037279;28;20940;-64
2021/04/21 10:13:56;;;;;;;18.60;12.77;;;;;;;;;;5054923;28;20698;-64
2021/04/21 10:16:23;;;;;;;16.30;12.30;;;;;;;;;;5053670;28;20631;-66
2021/04/21 10:18:49;;;;;;;19.10;14.70;;;;;;;;;;5054434;28;20599;-64
2021/04/21 10:21:18;;;;;;;18.53;12.97;;;;;;;;;;5054316;28;20587;-64
2021/04/21 10:23:45;;;;;;;16.37;13.60;;;;;;;;;;5036163;28;20718;-64
2021/04/21 10:26:14;;;;;;;18.27;13.60;;;;;;;;;;5054122;28;20684;-66
2021/04/21 10:28:41;;;;;;;13.23;11.83;;;;;;;;;;5054260;28;20617;-64
2021/04/21 10:31:09;;;;;;;14.60;11.97;;;;;;;;;;5053982;28;20623;-64
2021/04/21 10:33:36;;;;;;;14.03;12.53;;;;;;;;;;5053910;28;20618;-65
2021/04/21 10:36:04;;;;;;;12.80;10.80;;;;;;;;;;5054696;28;21208;-64
2021/04/21 10:38:31;;;;;;;14.43;11.37;;;;;;;;;;5055275;28;20664;-64
2021/04/21 10:41:17;;;;;;;10.63;9.47;;;;;;;;;;5054444;28;20647;-65
2021/04/21 10:43:43;;;;;;;11.13;10.03;;;;;;;;;;5055478;28;20587;-65
2021/04/21 10:46:10;;;;;;;14.83;11.03;;;;;;;;;;5054706;28;20757;-64
2021/04/21 10:48:38;;;;;;;11.73;9.57;;;;;;;;;;5054773;28;20706;-65
2021/04/21 10:51:24;;;;;;;11.87;8.63;;;;;;;;;;5054814;28;20695;-64
2021/04/21 10:53:51;;;;;;;14.13;9.93;;;;;;;;;;5054437;28;20664;-65
2021/04/21 10:56:24;;;;;;;11.20;9.83;;;;;;;;;;5035955;28;20671;-65
2021/04/21 10:58:51;;;;;;;11.83;10.60;;;;;;;;;;5055062;28;20734;-66
2021/04/21 11:01:28;;;;;;;12.70;11.40;;;;;;;;;;5055157;28;20626;-65
2021/04/21 11:03:55;;;;;;;19.87;11.37;;;;;;;;;;5055390;28;20611;-66
2021/04/21 11:06:33;;;;;;;12.83;11.50;;;;;;;;;;5053643;28;20665;-65
2021/04/21 11:09:00;;;;;;;13.03;11.73;;;;;;;;;;5054291;28;21145;-65
2021/04/21 11:11:36;;;;;;;11.33;10.13;;;;;;;;;;5054527;28;20715;-65
2021/04/21 11:14:04;;;;;;;12.13;10.93;;;;;;;;;;5053701;28;20684;-65
2021/04/21 11:16:53;;;;;;;12.60;11.30;;;;;;;;;;5054183;28;21137;-65
2021/04/21 11:19:20;;;;;;;11.00;9.90;;;;;;;;;;5053478;28;20630;-65
2021/04/21 11:21:48;;;;;;;10.73;9.70;;;;;;;;;;5036386;28;20630;-65
2021/04/21 11:24:17;;;;;;;11.20;10.10;;;;;;;;;;5054886;28;20623;-65
2021/04/21 11:26:50;;;;;;;12.87;11.53;;;;;;;;;;5054408;28;20651;-66
2021/04/21 11:29:16;;;;;;;11.23;10.20;;;;;;;;;;5054448;28;20619;-65
2021/04/21 11:31:43;;;;;;;12.90;11.70;;;;;;;;;;5055453;28;21269;-65
2021/04/21 11:34:22;;;;;;;13.70;12.40;;;;;;;;;;5054424;28;20623;-65
2021/04/21 11:36:51;;;;;;;19.63;12.30;;;;;;;;;;5055386;28;20685;-66
2021/04/21 11:39:37;;;;;;;14.07;12.60;;;;;;;;;;5038179;28;20631;-65
2021/04/21 11:42:17;;;;;;;12.63;11.43;;;;;;;;;;5055813;28;20639;-63
2021/04/21 11:44:50;;;;;;;15.83;11.97;;;;;;;;;;5038409;28;20614;-65
2021/04/21 11:47:30;;;;;;;29.30;17.00;;;;;;;;;;5055333;28;21228;-66
2021/04/21 11:49:59;;;;;;;15.77;13.70;;;;;;;;;;5054787;28;20595;-65
2021/04/21 11:52:45;;;;;;;19.13;15.00;;;;;;;;;;5055314;28;20613;-66
2021/04/21 11:55:22;;;;;;;13.90;10.43;;;;;;;;;;5054208;28;21222;-66
2021/04/21 11:58:14;;;;;;;10.60;9.43;;;;;;;;;;5054390;28;20614;-65
2021/04/21 12:00:42;;;;;;;11.60;9.13;;;;;;;;;;5017655;28;20637;-66
2021/04/21 12:03:14;;;;;;;11.37;10.23;;;;;;;;;;5035876;28;21025;-65
2021/04/21 12:05:41;;;;;;;10.53;8.37;;;;;;;;;;5054494;28;20638;-65
2021/04/21 12:08:08;;;;;;;9.33;8.43;;;;;;;;;;5058219;28;20626;-64
2021/04/21 12:10:35;;;;;;;9.50;8.00;;;;;;;;;;5041542;28;20963;-66
2021/04/21 12:13:16;;;;;;;10.00;7.83;;;;;;;;;;5063400;28;21008;-66
2021/04/21 12:15:43;;;;;;;6.70;6.07;;;;;;;;;;5061672;28;20682;-66
2021/04/21 12:18:10;;;;;;;7.17;6.57;;;;;;;;;;5059769;28;20615;-66
2021/04/21 12:20:37;;;;;;;7.37;6.67;;;;;;;;;;5059689;28;21159;-64
2021/04/21 12:23:03;;;;;;;12.23;9.07;;;;;;;;;;5058735;28;20602;-65
2021/04/21 12:25:32;;;;;;;10.40;9.47;;;;;;;;;;5057587;28;20730;-65
2021/04/21 12:28:00;;;;;;;12.93;9.80;;;;;;;;;;5057600;28;20615;-65
2021/04/21 12:30:28;;;;;;;10.70;8.87;;;;;;;;;;5057988;28;20629;-65
2021/04/21 12:32:56;;;;;;;9.80;8.80;;;;;;;;;;5057161;28;20630;-65
2021/04/21 12:35:23;;;;;;;10.40;9.40;;;;;;;;;;5038987;28;20623;-65
2021/04/21 12:37:58;;;;;;;9.70;8.70;;;;;;;;;;5056884;28;20629;-66
2021/04/21 12:40:30;;;;;;;11.33;9.40;;;;;;;;;;5040743;28;20668;-66
2021/04/21 12:43:10;;;;;;;19.13;11.73;;;;;;;;;;5058859;28;20688;-66
2021/04/21 12:45:37;;;;;;;11.23;10.07;;;;;;;;;;5056947;28;20654;-65
2021/04/21 12:48:22;;;;;;;11.20;10.10;;;;;;;;;;5056476;28;20631;-65
2021/04/21 12:50:50;;;;;;;12.33;10.93;;;;;;;;;;5056930;28;20976;-65
2021/04/21 12:53:18;;;;;;;14.00;11.60;;;;;;;;;;5056987;28;20610;-65
2021/04/21 12:55:45;;;;;;;11.53;10.53;;;;;;;;;;5056735;28;20627;-66
2021/04/21 12:58:13;;;;;;;14.43;10.80;;;;;;;;;;5056240;28;20673;-66
2021/04/21 13:00:40;;;;;;;10.87;9.77;;;;;;;;;;5056008;28;20673;-66
2021/04/21 13:03:17;;;;;;;13.70;12.23;;;;;;;;;;5056185;28;20698;-66
2021/04/21 13:05:44;;;;;;;11.00;10.10;;;;;;;;;;5055607;28;20658;-66
2021/04/21 13:08:20;;;;;;;12.33;10.03;;;;;;;;;;5055716;28;20619;-65
2021/04/21 13:10:47;;;;;;;9.90;9.00;;;;;;;;;;5055973;28;20623;-65
2021/04/21 13:13:13;;;;;;;6.07;5.67;;;;;;;;;;5037721;28;20653;-65
2021/04/21 13:15:40;;;;;;;5.93;5.43;;;;;;;;;;5056237;28;20676;-65
2021/04/21 13:18:10;;;;;;;6.30;5.70;;;;;;;;;;5055011;28;20613;-66
2021/04/21 13:20:38;;;;;;;6.07;5.23;;;;;;;;;;5055812;28;20639;-66
2021/04/21 13:23:31;;;;;;;4.80;4.40;;;;;;;;;;5056249;28;20680;-66
2021/04/21 13:25:57;;;;;;;6.03;5.43;;;;;;;;;;5051353;28;20665;-66
2021/04/21 13:28:31;;;;;;;7.00;6.43;;;;;;;;;;5038265;28;20663;-66
2021/04/21 13:31:18;;;;;;;7.77;7.07;;;;;;;;;;5055377;28;20625;-66
2021/04/21 13:33:45;;;;;;;6.97;6.37;;;;;;;;;;5038531;28;20618;-66
2021/04/21 13:36:13;;;;;;;6.57;6.13;;;;;;;;;;5055311;28;20595;-66
2021/04/21 13:38:40;;;;;;;6.80;6.20;;;;;;;;;;5037334;28;20622;-69
2021/04/21 13:41:08;;;;;;;6.80;5.60;;;;;;;;;;5054811;28;20647;-66
2021/04/21 13:43:35;;;;;;;7.47;6.87;;;;;;;;;;5055219;28;20955;-66
2021/04/21 13:46:02;;;;;;;7.97;7.37;;;;;;;;;;5054593;28;20641;-65
2021/04/21 13:48:32;;;;;;;9.90;9.00;;;;;;;;;;5055062;28;20970;-65
2021/04/21 13:50:59;;;;;;;7.93;7.33;;;;;;;;;;5055363;28;20587;-65
2021/04/21 13:53:26;;;;;;;8.77;8.10;;;;;;;;;;5055675;28;20619;-65
2021/04/21 13:55:53;;;;;;;8.10;7.40;;;;;;;;;;5055730;28;21134;-65
2021/04/21 13:58:20;;;;;;;7.30;6.60;;;;;;;;;;5055475;28;20591;-65
2021/04/21 14:00:47;;;;;;;9.20;8.10;;;;;;;;;;5055607;28;20619;-65
2021/04/21 14:03:13;;;;;;;7.27;6.53;;;;;;;;;;5054535;28;21161;-65
2021/04/21 14:05:40;;;;;;;6.93;6.20;;;;;;;;;;5054493;28;20619;-65
2021/04/21 14:08:07;;;;;;;9.50;6.23;;;;;;;;;;5054737;28;20643;-65
2021/04/21 14:10:34;;;;;;;8.50;7.70;;;;;;;;;;5054295;28;20587;-64
2021/04/21 14:13:01;;;;;;;9.53;7.40;;;;;;;;;;5054483;28;20981;-64
2021/04/21 14:15:28;;;;;;;8.20;7.23;;;;;;;;;;5054511;28;20595;-64
2021/04/21 14:17:55;;;;;;;8.10;7.30;;;;;;;;;;5054707;28;20956;-65
2021/04/21 14:20:22;;;;;;;13.67;8.43;;;;;;;;;;5053952;28;20725;-65
2021/04/21 14:22:49;;;;;;;8.00;7.20;;;;;;;;;;5036322;28;20623;-64
2021/04/21 14:25:17;;;;;;;8.37;7.07;;;;;;;;;;5054060;28;21150;-64
2021/04/21 14:27:43;;;;;;;7.60;7.00;;;;;;;;;;5053805;28;21017;-65
2021/04/21 14:30:11;;;;;;;6.63;6.03;;;;;;;;;;5053775;28;20626;-65
2021/04/21 14:32:38;;;;;;;9.60;7.10;;;;;;;;;;5054076;28;20610;-65
2021/04/21 14:35:05;;;;;;;7.87;7.17;;;;;;;;;;5054242;28;20588;-64
2021/04/21 14:37:32;;;;;;;7.60;7.00;;;;;;;;;;5053747;28;20595;-65
2021/04/21 14:39:59;;;;;;;7.20;6.60;;;;;;;;;;5054110;28;20629;-64
2021/04/21 14:42:27;;;;;;;8.13;7.43;;;;;;;;;;5053576;28;21006;-65